Stations météo

réclame
Mon MeteoGroup
Lons-Le-Saunier, France (7390): Température de l'air & dewpoint: 12.10.2019 04:00:00 - 18.10.2019 04:00:00 (CEST)Lons-Le-Saunier, France (7390): Vitesse du vent & gusts: 12.10.2019 04:00:00 - 18.10.2019 04:00:00 (CEST)Lons-Le-Saunier, France (7390): Direction du vent: 12.10.2019 04:00:00 - 18.10.2019 04:00:00 (CEST)Lons-Le-Saunier, France (7390): Quantités de précipitations: 12.10.2019 04:00:00 - 18.10.2019 04:00:00 (CEST)
Date & Time tt [°C] td [°C] ff [km/h] ff [knt] fx [km/h] fx [knt] dd rr [mm]
18.10.2019 04:00:00 - - - - - - - -
18.10.2019 03:00:00 16,0 12,2 16 9 29 16 S 0,0
18.10.2019 02:00:00 15,8 12,4 15 8 35 19 S -
18.10.2019 01:00:00 15,9 12,6 15 8 29 16 S 0,0
18.10.2019 00:00:00 16,0 12,7 16 9 29 16 S 0,0
17.10.2019 23:00:00 15,8 13,1 18 10 39 21 SSW 0,2
17.10.2019 22:00:00 15,8 12,9 18 10 35 19 S 0,0
17.10.2019 21:00:00 15,2 13,6 16 9 34 18 S 0,4
17.10.2019 20:00:00 15,3 13,3 15 8 29 16 S -
17.10.2019 19:00:00 15,2 13,2 15 8 28 15 S 0,0
17.10.2019 18:00:00 14,7 13,2 8 4 31 17 S 0,8
17.10.2019 17:00:00 15,3 13,3 18 10 34 18 S 0,8
17.10.2019 16:00:00 15,5 13,3 13 7 37 20 SSW 1,0
17.10.2019 15:00:00 16,8 13,1 21 11 34 18 SW 0,0
17.10.2019 14:00:00 16,9 13,0 13 7 42 23 SW -
17.10.2019 13:00:00 17,4 11,4 24 13 54 29 SSW 0,0
17.10.2019 12:00:00 17,9 11,5 22 12 42 23 SSW 0,0
17.10.2019 11:00:00 17,9 10,8 22 12 41 22 S 0,0
17.10.2019 10:00:00 16,3 9,7 18 10 35 19 S 0,0
17.10.2019 09:00:00 15,4 8,8 16 9 31 17 S 0,0
17.10.2019 08:00:00 14,7 8,9 11 6 26 14 S -
17.10.2019 07:00:00 14,9 9,5 13 7 29 16 S 0,0
17.10.2019 06:00:00 14,7 9,9 15 8 28 15 S 0,0
17.10.2019 05:00:00 14,4 9,8 11 6 31 17 S 0,0
17.10.2019 04:00:00 15,3 9,4 22 12 37 20 S 0,0
17.10.2019 03:00:00 15,3 9,0 21 11 41 22 S 0,0
17.10.2019 02:00:00 15,5 8,9 22 12 39 21 S -
17.10.2019 01:00:00 15,6 8,1 21 11 41 22 S 0,0
17.10.2019 00:00:00 15,9 7,6 21 11 41 22 S 0,0
16.10.2019 23:00:00 15,3 7,1 16 9 34 18 S 0,0
16.10.2019 22:00:00 14,2 7,3 13 7 24 13 SSE 0,0
16.10.2019 21:00:00 13,8 6,9 15 8 22 12 SSE 0,0
16.10.2019 20:00:00 13,2 8,1 9 5 15 8 SE -
16.10.2019 19:00:00 15,8 7,5 5 3 15 8 S 0,0
16.10.2019 18:00:00 17,4 7,4 15 8 29 16 SSW 0,0
16.10.2019 17:00:00 18,3 8,3 13 7 24 13 S 0,0
16.10.2019 16:00:00 17,9 8,2 16 9 34 18 SW 0,0
16.10.2019 15:00:00 17,8 7,8 21 11 34 18 SSW 0,0
16.10.2019 14:00:00 17,5 8,6 16 9 29 16 SSW -
16.10.2019 13:00:00 16,4 10,3 13 7 28 15 S 0,0
16.10.2019 12:00:00 14,3 9,1 11 6 21 11 SW 0,0
16.10.2019 11:00:00 13,4 8,7 9 5 16 9 SSW 0,0
16.10.2019 10:00:00 11,7 8,9 4 2 13 7 SSW 0,0
16.10.2019 09:00:00 11,4 7,5 5 3 15 8 S 0,0
16.10.2019 08:00:00 10,1 6,4 13 7 22 12 S -
16.10.2019 07:00:00 10,5 7,0 15 8 24 13 SSE 0,0
16.10.2019 06:00:00 10,8 7,3 15 8 22 12 SSE 0,0
16.10.2019 05:00:00 10,8 7,5 11 6 21 11 SSE 0,0
16.10.2019 04:00:00 10,8 7,7 13 7 18 10 SSE 0,0
16.10.2019 03:00:00 10,4 7,8 8 4 13 7 SSE 0,0
16.10.2019 02:00:00 10,4 8,0 8 4 15 8 SSE -
16.10.2019 01:00:00 10,7 8,3 8 4 16 9 S 0,0
16.10.2019 00:00:00 10,1 8,2 8 4 16 9 SE 0,0
15.10.2019 23:00:00 10,8 8,7 11 6 22 12 S 0,0
15.10.2019 22:00:00 11,1 9,4 4 2 21 11 SSW 0,0
15.10.2019 21:00:00 11,1 9,8 9 5 22 12 S 0,0
15.10.2019 20:00:00 11,1 9,8 13 7 24 13 SSW -
15.10.2019 19:00:00 11,1 10,5 11 6 22 12 SSW 0,2
15.10.2019 18:00:00 11,1 10,9 13 7 35 19 SSW 2,0
15.10.2019 17:00:00 11,4 11,2 18 10 39 21 SSW 2,0
15.10.2019 16:00:00 12,7 11,8 9 5 21 11 S 0,6
15.10.2019 15:00:00 12,7 12,1 11 6 22 12 S 1,0
15.10.2019 14:00:00 12,7 12,2 11 6 18 10 SSW -
15.10.2019 13:00:00 12,2 11,7 16 9 28 15 W 0,0
15.10.2019 12:00:00 13,7 12,4 11 6 21 11 SW 0,6
15.10.2019 11:00:00 13,1 11,8 11 6 24 13 SSE 4,0
15.10.2019 10:00:00 12,9 12,4 11 6 24 13 SSE 6,0
15.10.2019 09:00:00 12,9 12,7 15 8 22 12 ESE 4,0
15.10.2019 08:00:00 12,7 12,7 5 3 9 5 S -
15.10.2019 07:00:00 12,8 12,6 9 5 28 15 W 5,0
15.10.2019 06:00:00 13,3 12,8 8 4 28 15 NW 0,4
15.10.2019 05:00:00 14,3 13,5 9 5 35 19 S 1,0
15.10.2019 04:00:00 16,8 12,9 5 3 18 10 SE 0,0
15.10.2019 03:00:00 17,0 12,9 9 5 18 10 SE 0,0
15.10.2019 02:00:00 15,6 12,9 9 5 15 8 ESE -
15.10.2019 01:00:00 15,8 13,1 9 5 15 8 SE 0,0
15.10.2019 00:00:00 16,3 13,2 8 4 13 7 ESE 0,0
14.10.2019 23:00:00 18,9 13,7 5 3 13 7 SE 0,0
14.10.2019 22:00:00 19,6 14,0 8 4 22 12 SSE 0,0
14.10.2019 21:00:00 20,2 13,9 11 6 39 21 S 0,0
14.10.2019 20:00:00 21,0 13,4 16 9 37 20 S -
14.10.2019 19:00:00 22,0 12,8 13 7 41 22 S 0,0
14.10.2019 18:00:00 23,1 12,4 18 10 52 28 S 0,0
14.10.2019 17:00:00 24,6 11,5 22 12 48 26 S 0,0
14.10.2019 16:00:00 24,9 12,5 24 13 59 32 S 0,0
14.10.2019 15:00:00 24,9 13,4 26 14 65 35 SSW 0,0
14.10.2019 14:00:00 24,1 12,1 39 21 67 36 S -
14.10.2019 13:00:00 23,0 12,6 29 16 57 31 S 0,0
14.10.2019 12:00:00 22,4 12,3 29 16 65 35 S 0,0
14.10.2019 11:00:00 20,9 12,1 29 16 57 31 S 0,0
14.10.2019 10:00:00 19,6 11,6 26 14 50 27 S 0,0
14.10.2019 09:00:00 18,4 10,5 24 13 41 22 S 0,0
14.10.2019 08:00:00 18,1 10,5 24 13 44 24 S -
14.10.2019 07:00:00 17,4 11,7 24 13 42 23 S 0,0
14.10.2019 06:00:00 17,3 12,4 21 11 44 24 S 0,0
14.10.2019 05:00:00 17,4 12,1 18 10 50 27 S 0,0
14.10.2019 04:00:00 17,7 12,2 22 12 48 26 S 0,0
14.10.2019 03:00:00 18,2 12,2 24 13 46 25 S 0,0
14.10.2019 02:00:00 18,4 12,8 24 13 48 26 SSW -
14.10.2019 01:00:00 18,6 13,2 21 11 50 27 S 0,0
14.10.2019 00:00:00 19,0 13,2 22 12 46 25 S 0,0
13.10.2019 23:00:00 19,3 12,8 22 12 44 24 S 0,0
13.10.2019 22:00:00 19,4 12,4 22 12 46 25 S 0,0
13.10.2019 21:00:00 19,9 12,4 22 12 42 23 S 0,0
13.10.2019 20:00:00 20,4 12,4 24 13 44 24 SSW -
13.10.2019 19:00:00 20,9 12,3 21 11 41 22 S 0,0
13.10.2019 18:00:00 22,8 11,8 26 14 46 25 S 0,0
13.10.2019 17:00:00 24,0 12,9 22 12 46 25 S 0,0
13.10.2019 16:00:00 24,2 12,5 28 15 57 31 S 0,0
13.10.2019 15:00:00 25,0 12,6 22 12 52 28 S 0,0
13.10.2019 14:00:00 23,9 12,5 29 16 57 31 S -
13.10.2019 13:00:00 22,9 13,1 29 16 61 33 S 0,0
13.10.2019 12:00:00 21,8 13,7 29 16 55 30 SSW 0,0
13.10.2019 11:00:00 21,0 13,7 31 17 55 30 S 0,0
13.10.2019 10:00:00 19,6 13,1 24 13 48 26 S 0,0
13.10.2019 09:00:00 19,0 13,0 26 14 42 23 SSW 0,0
13.10.2019 08:00:00 18,7 12,4 22 12 44 24 S -
13.10.2019 07:00:00 18,9 12,9 24 13 50 27 S 0,0
13.10.2019 06:00:00 18,8 13,2 26 14 46 25 S 0,0
13.10.2019 05:00:00 18,6 13,7 22 12 48 26 S 0,0
13.10.2019 04:00:00 18,7 13,5 22 12 44 24 S 0,0
13.10.2019 03:00:00 18,7 13,3 18 10 41 22 SSW 0,0
13.10.2019 02:00:00 19,4 13,3 24 13 52 28 SSW -
13.10.2019 01:00:00 19,4 13,6 26 14 46 25 SSW 0,0
13.10.2019 00:00:00 19,8 13,5 26 14 61 33 S 0,0
12.10.2019 23:00:00 19,5 13,9 31 17 59 32 SSW 0,0
12.10.2019 22:00:00 20,1 14,0 26 14 52 28 S 0,0
12.10.2019 21:00:00 20,2 13,9 26 14 54 29 S 0,0
12.10.2019 20:00:00 20,2 13,9 26 14 55 30 S -
12.10.2019 19:00:00 20,4 14,3 31 17 57 31 S 0,0
12.10.2019 18:00:00 20,6 14,7 34 18 63 34 S 0,0
12.10.2019 17:00:00 20,6 15,2 28 15 52 28 S 0,0
12.10.2019 16:00:00 20,6 15,2 29 16 52 28 S 0,0
12.10.2019 15:00:00 21,4 15,2 22 12 46 25 S 0,0
12.10.2019 14:00:00 21,3 15,6 26 14 44 24 SSW -
12.10.2019 13:00:00 18,8 14,7 24 13 67 36 SW 0,0
12.10.2019 12:00:00 21,0 14,4 34 18 65 35 SSW 0,0
12.10.2019 11:00:00 20,3 14,2 21 11 39 21 S 0,0
12.10.2019 10:00:00 19,6 14,0 18 10 35 19 S 0,0
12.10.2019 09:00:00 18,0 12,9 16 9 35 19 S 0,0
12.10.2019 08:00:00 17,1 12,2 18 10 39 21 S -
12.10.2019 07:00:00 17,2 11,9 18 10 37 20 S 0,0
12.10.2019 06:00:00 17,0 11,7 18 10 41 22 S 0,0
12.10.2019 05:00:00 17,0 11,5 16 9 46 25 S 0,0
12.10.2019 04:00:00 17,0 11,7 22 12 50 27 S 0,0

tt = Température de l'air
td = dewpoint
ff = Vitesse du vent
fx = gusts
dd = Direction du vent
rr = Quantités de précipitations

stations d'obs. à proximité